• Join FlightAware (Why Join?)
  • Login
  • US Flag 
04:56AM EDT


 

Airport Tracker/Info


-or-


 

Live Flight TrackerFlight Track Log ✈ AAL1326 ✈ 10-Oct-2013 ✈ KTUL - KORD

Flight Track Log - Related Links

Times and Time Zones

All times are in EDT time to prevent confusion due to time zone crossing. See the AAL1326 flight status page for this flight to view local times or setup timezone preferences in your user account.

Time Position Orientation Groundspeed Altitude Reporting Facility
EDT Latitude Longitude Course Direction KTS MPH feet Rate Location/Type
09:48AM 36.1781 -95.8836 60° Northeast 164 189 1,500  Level Kansas City Center
09:50AM 36.1564 -95.8194 113° Southeast 262 302 3,600 2,340 Climbing Kansas City Center
09:51AM 36.4455 -95.5857 58° Northeast  Level Estimated
09:52AM 36.5277 -95.4845 90° East  Level Estimated
09:53AM 36.6098 -95.3831 58° Northeast  Level Estimated
09:54AM 36.6918 -95.2815 60° Northeast  Level Estimated
09:55AM 36.4150 -95.3220 113° Southeast 380 437 17,300  Level FlightAware
09:56AM 36.4580 -95.2350 58° Northeast 383 441 18,500 2,400 Climbing FlightAware
09:57AM 36.5120 -95.1240 59° Northeast 413 475 21,300 2,700 Climbing FlightAware
09:57AM 36.5430 -95.0600 59° Northeast 422 486 22,400 1,980 Climbing FlightAware
09:58AM 36.5870 -94.9690 59° Northeast 437 503 23,800 2,100 Climbing FlightAware
09:59AM 36.6270 -94.8860 59° Northeast 447 514 25,100 1,860 Climbing FlightAware
09:59AM 36.6630 -94.8100 59° Northeast 456 525 26,100 1,740 Climbing FlightAware
10:00AM 36.7020 -94.7290 59° Northeast 464 534 27,200 1,620 Climbing FlightAware
10:00AM 36.7370 -94.6560 59° Northeast 470 541 28,000 1,620 Climbing FlightAware
10:01AM 36.7780 -94.5740 58° Northeast 477 549 29,000 1,560 Climbing FlightAware
10:01AM 36.8350 -94.4970 47° Northeast 480 552 29,900 1,320 Climbing FlightAware
10:02AM 36.8940 -94.4310 42° Northeast 486 559 30,700 1,380 Climbing FlightAware
10:03AM 36.9520 -94.3650 42° Northeast 492 566 31,500 1,620 Climbing FlightAware
10:03AM 37.0120 -94.2980 42° Northeast 491 565 32,600 1,620 Climbing FlightAware
10:04AM 37.0650 -94.2370 43° Northeast 491 565 33,400 1,440 Climbing FlightAware
10:04AM 37.1310 -94.1630 42° Northeast 492 566 34,300 1,320 Climbing FlightAware
10:05AM 37.1880 -94.0980 42° Northeast 493 567 35,000 600 Climbing FlightAware
10:06AM 37.2480 -94.0290 42° Northeast 493 567 35,000  Level FlightAware
10:06AM 37.3080 -93.9610 42° Northeast 491 565 35,000  Level FlightAware
10:07AM 37.3650 -93.8960 42° Northeast 491 565 35,000  Level FlightAware
10:07AM 37.4230 -93.8280 43° Northeast 490 564 35,000  Level FlightAware
10:08AM 37.4780 -93.7650 42° Northeast 490 564 35,000  Level FlightAware
10:08AM 37.5370 -93.6970 42° Northeast 489 563 35,000  Level FlightAware
10:09AM 37.5990 -93.6260 42° Northeast 489 563 35,000  Level FlightAware
10:10AM 37.6530 -93.5630 43° Northeast 488 562 35,000  Level FlightAware
10:10AM 37.7180 -93.4880 42° Northeast 488 562 35,000  Level FlightAware
10:11AM 37.7940 -93.4010 42° Northeast 488 562 35,000  Level FlightAware
10:12AM 37.8510 -93.3330 43° Northeast 488 562 35,000  Level FlightAware
10:12AM 37.9020 -93.2740 42° Northeast 487 560 35,000  Level FlightAware
10:13AM 37.9690 -93.1950 43° Northeast 487 560 35,000  Level FlightAware
10:13AM 38.0260 -93.1280 43° Northeast 486 559 35,000  Level FlightAware
10:14AM 38.0830 -93.0610 43° Northeast 486 559 35,000  Level FlightAware
10:14AM 38.1380 -92.9960 43° Northeast 485 558 35,000  Level FlightAware
10:15AM 38.1960 -92.9280 43° Northeast 484 557 35,000  Level FlightAware
10:16AM 38.2450 -92.8690 43° Northeast 484 557 35,000  Level FlightAware
10:16AM 38.3110 -92.7910 43° Northeast 483 556 35,000  Level FlightAware
10:17AM 38.3700 -92.7200 43° Northeast 483 556 35,000  Level FlightAware
10:17AM 38.4300 -92.6490 43° Northeast 483 556 35,000  Level FlightAware
10:18AM 38.4870 -92.5800 43° Northeast 483 556 35,000  Level FlightAware
10:19AM 38.5380 -92.5190 43° Northeast 481 554 35,000  Level FlightAware
10:19AM 38.6020 -92.4430 43° Northeast 481 554 35,000  Level FlightAware
10:20AM 38.6440 -92.3930 43° Northeast 480 552 35,000  Level FlightAware
10:20AM 38.7140 -92.3080 43° Northeast 479 551 35,000  Level FlightAware
10:21AM 38.7660 -92.2440 44° Northeast 479 551 35,000  Level FlightAware
10:22AM 38.8260 -92.1720 43° Northeast 479 551 35,000  Level FlightAware
10:22AM 38.8790 -92.1080 43° Northeast 479 551 35,000  Level FlightAware
10:23AM 38.9330 -92.0410 44° Northeast 478 550 35,000  Level FlightAware
10:23AM 38.9940 -91.9670 43° Northeast 477 549 35,000  Level FlightAware
10:24AM 39.0500 -91.8990 43° Northeast 477 549 35,000  Level FlightAware
10:24AM 39.1040 -91.8320 44° Northeast 476 548 35,000  Level FlightAware
10:25AM 39.1640 -91.7580 44° Northeast 476 548 35,000  Level FlightAware
10:26AM 39.2150 -91.6960 43° Northeast 475 547 35,000  Level FlightAware
10:26AM 39.2740 -91.6230 44° Northeast 475 547 35,000  Level FlightAware
10:27AM 39.3320 -91.5510 44° Northeast 474 545 35,000  Level FlightAware
10:27AM 39.3820 -91.4880 44° Northeast 475 547 35,000  Level FlightAware
10:28AM 39.4350 -91.4230 43° Northeast 474 545 35,000  Level FlightAware
10:29AM 39.4990 -91.3560 39° Northeast 472 543 35,000  Level FlightAware
10:29AM 39.5610 -91.2920 39° Northeast 471 542 35,000  Level FlightAware
10:30AM 39.6280 -91.2230 38° Northeast 471 542 35,000  Level FlightAware
10:30AM 39.6900 -91.1590 38° Northeast 471 542 35,000  Level FlightAware
10:31AM 39.7470 -91.1000 39° Northeast 470 541 35,000  Level FlightAware
10:32AM 39.8050 -91.0400 38° Northeast 471 542 35,000  Level FlightAware
10:32AM 39.8630 -90.9790 39° Northeast 471 542 35,000  Level FlightAware
10:33AM 39.9240 -90.9150 39° Northeast 471 542 35,000  Level FlightAware
10:33AM 39.9830 -90.8520 39° Northeast 470 541 35,000  Level FlightAware
10:34AM 40.0430 -90.7900 38° Northeast 469 540 35,000  Level FlightAware
10:34AM 40.0960 -90.7340 39° Northeast 469 540 35,000  Level FlightAware
10:35AM 40.1550 -90.6720 39° Northeast 469 540 35,000 -780 Level FlightAware
10:36AM 40.2190 -90.6040 39° Northeast 468 539 34,100 -1,680 Descending FlightAware
10:36AM 40.2770 -90.5420 39° Northeast 469 540 33,000 -960 Descending FlightAware
10:37AM 40.3340 -90.4660 45° Northeast 476 548 33,000  Level FlightAware
10:37AM 40.3820 -90.3960 48° Northeast 475 547 33,000  Level FlightAware
10:38AM 40.4330 -90.3220 48° Northeast 474 545 33,000  Level FlightAware
10:39AM 40.4840 -90.2470 48° Northeast 473 544 33,000 -420 Level FlightAware
10:39AM 40.5410 -90.1640 48° Northeast 470 541 32,500 -1,320 Descending FlightAware
10:40AM 40.5850 -90.1000 48° Northeast 465 535 31,500 -1,920 Descending FlightAware
10:40AM 40.6410 -90.0170 48° Northeast 468 539 30,300 -2,040 Descending FlightAware
10:41AM 40.6930 -89.9410 48° Northeast 472 543 29,100 -1,920 Descending FlightAware
10:41AM 40.7370 -89.8760 48° Northeast 476 548 28,200 -1,800 Descending FlightAware
10:42AM 40.7880 -89.7940 51° Northeast 494 568 27,100 -1,920 Descending FlightAware
10:43AM 40.8430 -89.7070 50° Northeast 488 562 25,900 -1,980 Descending FlightAware
10:43AM 40.8910 -89.6290 51° Northeast 481 554 24,800 -1,560 Descending FlightAware
10:44AM 40.9440 -89.5450 50° Northeast 473 544 24,100 -720 Descending FlightAware
10:44AM 40.9880 -89.4740 51° Northeast 444 511 24,000 -900 Descending FlightAware
10:45AM 41.0340 -89.4010 50° Northeast 433 498 23,100 -1,440 Descending FlightAware
10:46AM 41.0760 -89.3330 51° Northeast 424 488 22,400 -2,100 Descending FlightAware
10:46AM 41.1170 -89.2660 51° Northeast 426 490 20,800 -2,580 Descending FlightAware
10:47AM 41.1630 -89.1920 50° Northeast 409 471 19,400 -2,640 Descending FlightAware
10:47AM 41.2040 -89.1260 50° Northeast 403 464 17,700 -2,760 Descending FlightAware
10:48AM 41.2490 -89.0540 50° Northeast 398 458 16,100 -2,400 Descending FlightAware
10:48AM 41.2850 -88.9940 51° Northeast 386 444 15,000 -2,280 Descending FlightAware
10:49AM 41.3260 -88.9270 51° Northeast 380 437 13,500 -2,460 Descending FlightAware
10:50AM 41.3650 -88.8640 50° Northeast 371 427 12,100 -2,280 Descending FlightAware
10:50AM 41.4010 -88.8040 51° Northeast 365 420 10,900 -1,260 Descending FlightAware
10:51AM 41.4330 -88.7520 51° Northeast 361 415 10,800 -120 Descending FlightAware
10:51AM 41.4730 -88.6860 51° Northeast 360 414 10,800  Level FlightAware
10:52AM 41.5110 -88.6230 51° Northeast 362 417 10,800  Level FlightAware
10:53AM 41.5500 -88.5590 51° Northeast 361 415 10,800  Level FlightAware
10:53AM 41.5840 -88.5030 51° Northeast 360 414 10,800  Level FlightAware
10:54AM 41.6230 -88.4390 51° Northeast 362 417 10,800  Level FlightAware
10:54AM 41.6600 -88.3780 51° Northeast 362 417 10,800  Level FlightAware
10:55AM 41.6950 -88.3190 52° Northeast 361 415 10,800 -120 Level FlightAware
10:55AM 41.7340 -88.2530 52° Northeast 361 415 10,700 -960 Descending FlightAware
10:56AM 41.7620 -88.2040 53° Northeast 351 404 9,800 -1,200 Descending FlightAware
10:56AM 41.7790 -88.1760 51° Northeast 323 372 9,800 -180 Level FlightAware
10:57AM 41.7990 -88.1420 52° Northeast 292 336 9,700 -1,140 Descending FlightAware
10:57AM 41.8160 -88.1120 53° Northeast 295 339 9,000 -1,980 Descending FlightAware
10:57AM 41.8290 -88.0890 53° Northeast 295 339 8,500 -2,160 Descending FlightAware
10:58AM 41.8450 -88.0590 54° Northeast 297 342 7,700 -1,860 Descending FlightAware
10:58AM 41.8610 -88.0300 53° Northeast 292 336 7,300 -1,260 Descending FlightAware
10:58AM 41.8770 -88.0010 53° Northeast 285 328 6,900 -1,080 Descending FlightAware
10:58AM 41.8820 -87.9870 64° Northeast 281 323 6,800 -420 Descending FlightAware
10:58AM 41.8840 -87.9750 77° East 279 321 6,800  Level FlightAware
10:59AM 41.8840 -87.9610 90° East 277 319 6,800  Level FlightAware
10:59AM 41.8840 -87.9220 90° East 261 300 6,800  Level FlightAware
10:59AM 41.8840 -87.9000 90° East 247 284 6,800  Level FlightAware
11:00AM 41.8840 -87.8650 90° East 239 275 6,800  Level FlightAware
11:00AM 41.8840 -87.8370 90° East 236 272 6,800 -300 Level FlightAware
11:00AM 41.8840 -87.8050 90° East 234 269 6,600 -1,080 Descending FlightAware
11:01AM 41.8850 -87.7720 88° East 229 264 6,000 -1,560 Descending FlightAware
11:01AM 41.8850 -87.7400 90° East 227 261 5,400 -1,800 Descending FlightAware
11:02AM 41.8860 -87.7040 88° East 235 270 4,600 -1,800 Descending FlightAware
11:02AM 41.8880 -87.6970 69° East 235 270 4,500 -1,440 Descending FlightAware
11:02AM 41.8930 -87.6880 53° Northeast 234 269 4,300 -1,500 Descending FlightAware
11:02AM 41.9000 -87.6800 40° Northeast 230 265 4,100 -1,080 Descending FlightAware
11:02AM 41.9080 -87.6760 20° North 227 261 4,000 -840 Descending FlightAware
11:02AM 41.9150 -87.6750 North 223 257 3,900 -480 Descending FlightAware
11:02AM 41.9350 -87.6760 358° North 221 254 3,800 -240 Descending FlightAware
11:03AM 41.9440 -87.6790 346° North 221 254 3,800  Level FlightAware
11:03AM 41.9480 -87.6810 340° North 222 255 3,800  Level FlightAware
11:03AM 41.9520 -87.6850 323° Northwest 223 257 3,800  Level FlightAware
11:03AM 41.9590 -87.6960 311° West 225 259 3,800  Level FlightAware
11:03AM 41.9630 -87.7060 298° West 226 260 3,800 -480 Level FlightAware
11:03AM 41.9730 -87.7310 298° West 224 258 3,600 -1,320 Descending FlightAware
11:04AM 41.9810 -87.7570 292° West 216 249 2,900 -1,620 Descending FlightAware
11:04AM 41.9820 -87.7820 273° West 200 230 2,500 -1,380 Descending FlightAware
11:04AM 41.9830 -87.8080 273° West 184 212 2,000 -1,440 Descending FlightAware
11:05AM 41.9840 -87.8280 274° West 173 199 1,600 -1,320 Descending FlightAware
11:05AM 41.9840 -87.8490 270° West 163 188 1,100 -1,320 Descending FlightAware
11:06AM 41.9840 -87.8740 270° West 146 168 600 -960 Descending FlightAware
11:06AM 41.9840 -87.8870 270° West 150 173 500 -480 Descending FlightAware
11:06AM 41.9840 -87.9080 270° West 80 92 -1,080 Descending FlightAware